CWLY

Lytton Airport

Lytton, Canada
METAR CWLY 241100Z AUTO VRB02KT 1SM -SN BKN005 BKN011 OVC031 00/00 A2969 RMK ICG PAST HR SLP064
Observed Flight Rules
Jan-24 @ 11:00 UTC (32 minutes ago) Instrument Flight Rules
Wind Visibility Clouds Conditions
Variable at 2 knots 1 miles
  • Broken at 500' AGL
  • Broken at 1,100' AGL
  • Overcast at 3,100' AGL
  • Light Snow
Temperatures Readings
Current 0°C / 32°F
Dewpoint 0°C / 32°F
Humidity 100%
Altimeter 29.69" Hg
Pressure 1006.4 hPa
Elevation 229
METAR CWLY 241100Z AUTO VRB02KT 1SM -SN BKN005 BKN011 OVC031 00/00 A2969 RMK ICG PAST HR SLP064
Observed Flight Rules
Jan-24 @ 11:00 UTC
(32 minutes ago)
IFR
Wind Visibility
Variable at 2 knots 1 miles
Clouds
  • Broken at 500' AGL
  • Broken at 1,100' AGL
  • Overcast at 3,100' AGL
Conditions
  • Light Snow
Temperature Dewpoint
0°C / 32°F 0°C / 32°F
Humidity Altimeter Pressure
100% 29.69" Hg 1006.4 hPa